Time;durP1;ratioP1;P1;durP2;ratioP2;P2;SDS_P1;SDS_P2;PMS_P1;PMS_P2;Temp;Humidity;BMP_temperature;BMP_pressure;BME280_temperature;BME280_humidity;BME280_pressure;Samples;Min_cycle;Max_cycle;Signal;HPM_P1;HPM_P2
2021/12/28 00:01:52;;;;;;;;;0.00;0.00;;;;;13.25;76.07;98978.34;5080129;28;45641;-75
2021/12/28 00:04:17;;;;;;;;;2.67;0.00;;;;;13.25;76.30;98975.69;5079483;28;57588;-75
2021/12/28 00:06:43;;;;;;;;;0.33;0.33;;;;;13.20;76.29;98953.72;5061241;28;60921;-75
2021/12/28 00:09:09;;;;;;;;;0.67;0.67;;;;;13.23;76.67;98974.88;5061123;28;54535;-75
2021/12/28 00:11:34;;;;;;;;;0.67;0.00;;;;;13.21;76.66;98957.22;5098787;27;45620;-74
2021/12/28 00:14:01;;;;;;;;;0.00;0.00;;;;;13.22;76.88;98951.94;5087630;27;58171;-74
2021/12/28 00:16:31;;;;;;;;;0.67;0.00;;;;;13.16;76.80;98944.16;5080030;28;45352;-75
2021/12/28 00:18:57;;;;;;;;;0.00;0.00;;;;;13.18;76.69;98942.31;5087477;27;45554;-75
2021/12/28 00:21:23;;;;;;;;;0.00;0.00;;;;;13.17;76.60;98961.78;5080101;28;45288;-75
2021/12/28 00:23:49;;;;;;;;;2.33;0.00;;;;;13.15;76.67;98957.41;5079790;27;47349;-76
2021/12/28 00:26:17;;;;;;;;;0.00;0.00;;;;;13.16;76.81;98964.47;5079633;28;45484;-75
2021/12/28 00:28:43;;;;;;;;;1.00;1.00;;;;;13.17;77.20;98953.81;5079559;28;45525;-76
2021/12/28 00:31:08;;;;;;;;;2.00;0.00;;;;;13.19;76.66;98945.81;5079756;28;45671;-74
2021/12/28 00:33:33;;;;;;;;;0.00;0.00;;;;;13.16;76.62;98938.84;5044383;28;47680;-74
2021/12/28 00:35:59;;;;;;;;;1.67;0.33;;;;;13.21;76.66;98943.97;5079550;28;45299;-75
2021/12/28 00:38:25;;;;;;;;;1.33;0.00;;;;;13.22;76.47;98941.34;5079242;28;45387;-75
2021/12/28 00:40:53;;;;;;;;;0.00;0.00;;;;;13.22;76.71;98940.47;5079561;28;45346;-75
2021/12/28 00:43:18;;;;;;;;;1.00;1.00;;;;;13.24;76.47;98941.28;5079125;28;46396;-75
2021/12/28 00:45:44;;;;;;;;;0.00;0.00;;;;;13.17;76.48;98923.81;5079420;28;45255;-76
2021/12/28 00:48:09;;;;;;;;;0.00;0.00;;;;;13.21;76.26;98936.03;5079411;28;45478;-76
2021/12/28 00:50:35;;;;;;;;;0.67;0.67;;;;;13.19;76.57;98929.91;5060773;28;54869;-75
2021/12/28 00:53:00;;;;;;;;;1.00;1.00;;;;;13.21;76.40;98938.69;5080374;27;45741;-76
2021/12/28 00:55:26;;;;;;;;;0.00;0.00;;;;;13.20;76.67;98935.16;5084426;27;59139;-75
2021/12/28 00:57:51;;;;;;;;;2.00;0.00;;;;;13.21;76.67;98936.03;5079165;28;45249;-75
2021/12/28 01:00:22;;;;;;;;;0.00;0.00;;;;;13.19;76.82;98935.22;5078878;28;45486;-75
2021/12/28 01:02:48;;;;;;;;;1.00;1.00;;;;;13.23;76.62;98939.56;5044526;28;46455;-75
2021/12/28 01:05:13;;;;;;;;;1.33;1.00;;;;;13.21;77.00;98934.31;5078802;28;45332;-75
2021/12/28 01:07:39;;;;;;;;;0.00;0.00;;;;;13.21;76.73;98941.31;5078834;27;45648;-75
2021/12/28 01:10:06;;;;;;;;;1.00;1.00;;;;;13.19;76.88;98932.56;5079090;28;45296;-76
2021/12/28 01:12:31;;;;;;;;;1.00;0.00;;;;;13.23;76.77;98939.56;5080886;27;47274;-75
2021/12/28 01:14:57;;;;;;;;;2.33;1.00;;;;;13.24;76.63;98947.44;5078678;28;50345;-75
2021/12/28 01:17:22;;;;;;;;;0.00;0.00;;;;;13.26;76.63;98953.59;5078581;28;50013;-75
2021/12/28 01:19:47;;;;;;;;;0.00;0.00;;;;;13.27;76.74;98951.81;5078956;28;45253;-75
2021/12/28 01:22:13;;;;;;;;;0.00;0.00;;;;;13.28;76.71;98949.09;5078433;28;51084;-75
2021/12/28 01:24:38;;;;;;;;;0.00;0.00;;;;;13.26;77.12;98940.34;5078247;28;48094;-76
2021/12/28 01:27:04;;;;;;;;;0.00;0.00;;;;;13.32;76.66;98942.81;5078789;28;45366;-75
2021/12/28 01:29:29;;;;;;;;;0.33;0.00;;;;;13.32;77.02;98937.50;5078868;28;45298;-75
2021/12/28 01:31:55;;;;;;;;;0.00;0.00;;;;;13.31;76.92;98946.34;5078229;28;45629;-75
2021/12/28 01:34:20;;;;;;;;;0.00;0.00;;;;;13.26;76.92;98943.00;5078313;28;50423;-75
2021/12/28 01:36:46;;;;;;;;;0.00;0.00;;;;;13.21;76.73;98951.94;5078319;28;45329;-75
2021/12/28 01:39:11;;;;;;;;;0.00;0.00;;;;;13.14;76.98;98939.78;5078280;28;51121;-76
2021/12/28 01:41:36;;;;;;;;;0.00;0.00;;;;;13.11;77.61;98954.00;5078189;28;45546;-75
2021/12/28 01:44:05;;;;;;;;;0.00;0.00;;;;;13.06;77.36;98956.78;5078100;28;54020;-76
2021/12/28 01:46:31;;;;;;;;;0.00;0.00;;;;;13.05;77.41;98954.19;5078235;28;45142;-77
2021/12/28 01:48:56;;;;;;;;;0.00;0.00;;;;;13.06;77.97;98963.88;5060552;28;45268;-76
2021/12/28 01:51:22;;;;;;;;;0.00;0.00;;;;;13.05;78.31;98975.38;5077324;28;63099;-75
2021/12/28 01:53:50;;;;;;;;;0.00;0.00;;;;;13.01;78.16;98971.94;5086320;27;45174;-75
2021/12/28 01:56:21;;;;;;;;;0.00;0.00;;;;;13.01;78.17;98973.72;5083247;27;45386;-75
2021/12/28 01:58:46;;;;;;;;;0.00;0.00;;;;;13.07;78.46;98989.44;5078339;28;45218;-75
2021/12/28 02:01:12;;;;;;;;;0.00;0.00;;;;;13.11;78.16;98984.03;5078088;28;45586;-76
2021/12/28 02:03:38;;;;;;;;;0.00;0.00;;;;;13.16;77.69;99001.56;5078163;28;45378;-75
2021/12/28 02:06:04;;;;;;;;;0.00;0.00;;;;;13.16;77.84;99017.47;5078126;28;45573;-75
2021/12/28 02:08:29;;;;;;;;;0.00;0.00;;;;;13.20;77.32;99027.06;5077957;28;45361;-76
2021/12/28 02:10:55;;;;;;;;;0.00;0.00;;;;;13.19;77.82;99023.53;5076156;28;59564;-75
2021/12/28 02:13:21;;;;;;;;;0.00;0.00;;;;;13.20;77.66;99029.69;5080517;27;45382;-75
2021/12/28 02:15:47;;;;;;;;;2.00;0.00;;;;;13.20;77.09;99019.97;5077849;28;45287;-76
2021/12/28 02:18:13;;;;;;;;;0.00;0.00;;;;;13.19;77.49;99039.44;5077868;28;45385;-75
2021/12/28 02:20:39;;;;;;;;;0.00;0.00;;;;;13.16;77.35;99044.84;5077580;28;47581;-75
2021/12/28 02:23:04;;;;;;;;;0.00;0.00;;;;;13.09;77.18;99038.81;5077813;27;45295;-76
2021/12/28 02:25:31;;;;;;;;;0.00;0.00;;;;;13.06;76.93;99048.66;5059517;28;45486;-76
2021/12/28 02:27:57;;;;;;;;;0.00;0.00;;;;;12.96;77.03;99057.78;5078160;28;45146;-75
2021/12/28 02:30:22;;;;;;;;;0.67;0.00;;;;;12.96;77.15;99073.66;5077490;28;46691;-76
2021/12/28 02:32:48;;;;;;;;;0.00;0.00;;;;;12.90;77.60;99064.09;5077550;28;50297;-75
2021/12/28 02:35:16;;;;;;;;;0.00;0.00;;;;;12.87;77.17;99074.75;5059594;28;45411;-75
2021/12/28 02:37:42;;;;;;;;;1.00;0.00;;;;;12.85;77.58;99087.19;5077927;28;45391;-75
2021/12/28 02:40:11;;;;;;;;;0.00;0.00;;;;;12.80;77.32;99092.59;5077345;27;45540;-75
2021/12/28 02:42:36;;;;;;;;;1.67;0.00;;;;;12.74;77.35;99099.84;5077304;27;45368;-76
2021/12/28 02:45:09;;;;;;;;;1.00;0.00;;;;;12.73;77.29;99092.78;5076940;28;51402;-76
2021/12/28 02:47:38;;;;;;;;;1.00;0.00;;;;;12.72;77.30;99099.00;5077692;28;45448;-75
2021/12/28 02:50:05;;;;;;;;;0.67;0.00;;;;;12.70;77.91;99116.72;5077315;28;46430;-75
2021/12/28 02:52:36;;;;;;;;;1.00;0.00;;;;;12.70;77.54;99129.97;5077271;28;45359;-76
2021/12/28 02:55:03;;;;;;;;;1.00;0.00;;;;;12.63;77.35;99120.44;5080067;27;45230;-75
2021/12/28 02:57:28;;;;;;;;;0.00;0.00;;;;;12.67;77.89;99141.47;5098035;27;45510;-75
2021/12/28 02:59:53;;;;;;;;;0.00;0.00;;;;;12.70;77.41;99143.19;5096972;27;61628;-76
2021/12/28 03:02:19;;;;;;;;;0.33;0.00;;;;;12.71;77.52;99151.09;5097520;27;49709;-76
2021/12/28 03:04:44;;;;;;;;;1.67;0.00;;;;;12.76;77.46;99161.56;5096934;27;54448;-75
2021/12/28 03:07:10;;;;;;;;;1.67;0.00;;;;;12.79;77.20;99154.44;5097742;27;45403;-75
2021/12/28 03:09:35;;;;;;;;;0.00;0.00;;;;;12.86;77.21;99157.78;5197436;22;46446;-75
2021/12/28 03:12:01;;;;;;;;;1.00;0.00;;;;;12.89;77.08;99163.03;5097120;27;45293;-76
2021/12/28 03:14:26;;;;;;;;;2.33;0.00;;;;;12.92;76.85;99157.63;5091744;27;45468;-77
2021/12/28 03:16:52;;;;;;;;;1.00;0.00;;;;;12.93;77.12;99163.81;5079537;27;45685;-77
2021/12/28 03:19:17;;;;;;;;;0.67;0.00;;;;;12.92;76.99;99159.41;5079134;27;46674;-75
2021/12/28 03:21:43;;;;;;;;;1.00;0.00;;;;;12.93;76.85;99153.22;5076929;28;59466;-75
2021/12/28 03:24:08;;;;;;;;;0.00;0.00;;;;;12.94;77.06;99152.28;5080158;28;55454;-75
2021/12/28 03:26:34;;;;;;;;;0.00;0.00;;;;;12.97;77.12;99166.34;5062766;28;45185;-75
2021/12/28 03:28:59;;;;;;;;;0.33;0.00;;;;;13.00;76.82;99163.63;5080647;28;45626;-75
2021/12/28 03:31:25;;;;;;;;;0.00;0.00;;;;;13.03;76.63;99171.47;5080394;28;49978;-75
2021/12/28 03:33:52;;;;;;;;;0.00;0.00;;;;;13.04;76.51;99164.41;5080269;28;50780;-75
2021/12/28 03:36:18;;;;;;;;;0.00;0.00;;;;;13.10;76.32;99167.78;5062750;28;45364;-76
2021/12/28 03:38:43;;;;;;;;;0.00;0.00;;;;;13.15;76.60;99174.72;5079980;28;46680;-75
2021/12/28 03:41:09;;;;;;;;;1.00;0.00;;;;;13.15;76.47;99170.28;5080367;28;45315;-76
2021/12/28 03:43:35;;;;;;;;;0.67;0.00;;;;;13.16;76.17;99182.66;5080368;28;45270;-76
2021/12/28 03:46:03;;;;;;;;;0.00;0.00;;;;;13.18;76.01;99187.91;5080574;28;45146;-75
2021/12/28 03:48:29;;;;;;;;;0.00;0.00;;;;;13.13;75.73;99179.19;5080047;28;46775;-76
2021/12/28 03:50:54;;;;;;;;;0.00;0.00;;;;;13.16;75.72;99187.94;5079628;28;61520;-76
2021/12/28 03:53:19;;;;;;;;;0.00;0.00;;;;;13.17;76.07;99187.03;5083895;27;52874;-75
2021/12/28 03:55:45;;;;;;;;;1.00;0.00;;;;;13.18;76.31;99195.84;5089175;27;53219;-76
2021/12/28 03:58:10;;;;;;;;;0.00;0.00;;;;;13.14;75.96;99180.94;5080019;27;46365;-75
2021/12/28 04:00:38;;;;;;;;;0.00;0.00;;;;;13.17;75.97;99187.03;5079309;28;59221;-76
2021/12/28 04:03:03;;;;;;;;;0.00;0.00;;;;;13.16;76.06;99195.91;5079962;28;45391;-75
2021/12/28 04:05:29;;;;;;;;;1.33;0.00;;;;;13.16;76.29;99189.72;5079928;28;47208;-75
2021/12/28 04:07:55;;;;;;;;;0.00;0.00;;;;;13.22;76.17;99200.19;5061360;28;55358;-75
2021/12/28 04:10:29;;;;;;;;;1.00;0.00;;;;;13.19;75.79;99186.97;5093450;27;45407;-75
2021/12/28 04:12:54;;;;;;;;;0.00;0.00;;;;;13.25;76.20;99190.38;5096564;27;45330;-77
2021/12/28 04:15:19;;;;;;;;;0.00;0.00;;;;;13.28;75.97;99197.38;5069266;28;45359;-75
2021/12/28 04:17:45;;;;;;;;;1.67;0.00;;;;;13.30;75.49;99203.50;5080970;27;62479;-75
2021/12/28 04:20:13;;;;;;;;;0.00;0.00;;;;;13.27;75.75;99193.00;5079771;28;45322;-76
2021/12/28 04:22:38;;;;;;;;;0.00;0.00;;;;;13.31;75.71;99194.63;5079566;28;45359;-75
2021/12/28 04:25:05;;;;;;;;;0.00;0.00;;;;;13.17;75.63;99175.56;5061801;28;45384;-77
2021/12/28 04:27:33;;;;;;;;;1.00;0.00;;;;;13.27;75.53;99204.47;5079442;28;46864;-75
2021/12/28 04:29:59;;;;;;;;;0.00;0.00;;;;;13.21;75.86;99214.31;5079663;28;45403;-76
2021/12/28 04:32:24;;;;;;;;;0.00;0.00;;;;;13.23;75.55;99213.41;5079597;28;45957;-75
2021/12/28 04:34:50;;;;;;;;;0.00;0.00;;;;;13.25;75.47;99213.34;5078552;28;45225;-75
2021/12/28 04:37:15;;;;;;;;;1.00;0.00;;;;;13.27;75.94;99217.72;5079337;28;46252;-75
2021/12/28 04:39:41;;;;;;;;;2.00;0.00;;;;;13.28;75.49;99227.41;5078864;27;59871;-76
2021/12/28 04:42:06;;;;;;;;;0.00;0.00;;;;;13.29;75.47;99230.94;5079595;28;45201;-75
2021/12/28 04:44:32;;;;;;;;;1.00;0.00;;;;;13.31;75.37;99211.41;5079366;27;45416;-77
2021/12/28 04:46:57;;;;;;;;;1.00;0.00;;;;;13.33;75.30;99208.75;5079339;28;46249;-75
2021/12/28 04:49:25;;;;;;;;;0.67;0.00;;;;;13.34;75.41;99213.13;5078784;27;56076;-76
2021/12/28 04:51:51;;;;;;;;;0.00;0.00;;;;;13.33;75.28;99225.50;5079342;28;45461;-75
2021/12/28 04:54:17;;;;;;;;;1.00;0.00;;;;;13.32;74.97;99207.00;5091582;27;45591;-75
2021/12/28 04:56:42;;;;;;;;;1.00;0.00;;;;;13.32;75.45;99220.25;5080181;27;47442;-75
2021/12/28 04:59:07;;;;;;;;;0.33;0.00;;;;;13.32;75.27;99217.59;5078768;28;62144;-76
2021/12/28 05:01:34;;;;;;;;;1.00;0.00;;;;;13.31;75.36;99218.50;5078367;28;53118;-76
2021/12/28 05:03:59;;;;;;;;;1.00;0.00;;;;;13.28;75.50;99221.25;5079281;28;45535;-75
2021/12/28 05:06:24;;;;;;;;;0.00;0.00;;;;;13.33;74.99;99244.06;5078851;28;45603;-76
2021/12/28 05:08:50;;;;;;;;;1.33;0.00;;;;;13.37;75.03;99228.97;5062723;27;45391;-75
2021/12/28 05:11:15;;;;;;;;;1.00;0.00;;;;;13.38;74.87;99233.34;5080421;27;54445;-76
2021/12/28 05:13:41;;;;;;;;;1.00;0.00;;;;;13.41;75.05;99235.03;5093987;27;49318;-75
2021/12/28 05:16:07;;;;;;;;;0.33;0.00;;;;;13.44;74.63;99250.88;5079936;27;46484;-75
2021/12/28 05:18:32;;;;;;;;;2.00;0.00;;;;;13.45;74.72;99264.09;5079074;27;45495;-75
2021/12/28 05:20:57;;;;;;;;;1.00;0.00;;;;;13.48;74.08;99260.50;5078246;28;54300;-76
2021/12/28 05:23:23;;;;;;;;;0.33;0.00;;;;;13.42;74.04;99260.63;5079124;28;45712;-75
2021/12/28 05:25:48;;;;;;;;;0.00;0.00;;;;;13.50;74.36;99272.78;5077861;28;63693;-76
2021/12/28 05:28:14;;;;;;;;;0.00;0.00;;;;;13.51;74.12;99273.66;5078718;28;45373;-75
2021/12/28 05:30:39;;;;;;;;;0.00;0.00;;;;;13.53;73.56;99283.34;5078599;28;45418;-76
2021/12/28 05:33:05;;;;;;;;;0.00;0.00;;;;;13.51;73.72;99287.78;5078488;27;45504;-75
2021/12/28 05:35:34;;;;;;;;;0.00;0.00;;;;;13.56;73.89;99291.19;5060201;28;46461;-75
2021/12/28 05:37:59;;;;;;;;;2.00;0.00;;;;;13.54;73.52;99281.56;5077914;28;59053;-75
2021/12/28 05:40:25;;;;;;;;;1.00;0.00;;;;;13.58;73.93;99285.84;5078444;28;45572;-75
2021/12/28 05:42:50;;;;;;;;;4.00;0.00;;;;;13.59;73.27;99299.09;5078638;28;45343;-75
2021/12/28 05:45:16;;;;;;;;;0.67;0.67;;;;;13.63;73.86;99299.84;5077619;28;56882;-76
2021/12/28 05:47:41;;;;;;;;;3.00;0.00;;;;;13.61;73.82;99294.59;5077965;28;56400;-75
2021/12/28 05:50:08;;;;;;;;;1.00;0.00;;;;;13.65;73.61;99313.09;5078652;28;45768;-75
2021/12/28 05:52:33;;;;;;;;;0.00;0.00;;;;;13.66;73.66;99309.53;5060392;28;45291;-76
2021/12/28 05:54:58;;;;;;;;;0.00;0.00;;;;;13.66;73.48;99315.69;5091813;27;45429;-76
2021/12/28 05:57:24;;;;;;;;;0.00;0.00;;;;;13.65;73.24;99307.78;5077758;28;55074;-75
2021/12/28 05:59:50;;;;;;;;;3.00;0.00;;;;;13.61;73.56;99301.69;5078359;28;45281;-76
2021/12/28 06:02:15;;;;;;;;;2.00;0.00;;;;;13.65;73.17;99315.75;5060153;28;45528;-76
2021/12/28 06:04:40;;;;;;;;;0.00;0.00;;;;;13.65;73.03;99321.06;5077110;27;60433;-75
2021/12/28 06:07:06;;;;;;;;;0.00;0.00;;;;;13.65;72.94;99315.75;5077738;28;58131;-75
2021/12/28 06:09:34;;;;;;;;;1.00;0.00;;;;;13.64;72.48;99325.50;5064117;27;50503;-76
2021/12/28 06:11:59;;;;;;;;;2.67;0.00;;;;;13.64;71.94;99333.44;5095285;27;45469;-76
2021/12/28 06:14:25;;;;;;;;;3.00;0.00;;;;;13.63;72.36;99327.28;5085654;27;61455;-76
2021/12/28 06:16:50;;;;;;;;;2.00;0.00;;;;;13.66;72.88;99339.56;5077976;28;45271;-76
2021/12/28 06:19:16;;;;;;;;;1.00;0.00;;;;;13.67;72.92;99337.78;5088376;27;56558;-75
2021/12/28 06:21:41;;;;;;;;;4.00;0.00;;;;;13.66;72.04;99346.66;5077520;28;54999;-76
2021/12/28 06:24:06;;;;;;;;;2.00;0.33;;;;;13.69;72.21;99350.13;5077035;28;60745;-75
2021/12/28 06:26:35;;;;;;;;;0.33;0.00;;;;;13.70;71.96;99356.28;5059614;28;45314;-75
2021/12/28 06:29:04;;;;;;;;;2.00;0.00;;;;;13.71;72.45;99353.59;5077771;27;45374;-76
2021/12/28 06:31:29;;;;;;;;;2.67;0.00;;;;;13.66;71.45;99352.84;5059876;28;45713;-77
2021/12/28 06:33:59;;;;;;;;;0.00;0.00;;;;;13.69;71.48;99360.72;5077304;28;46437;-75
2021/12/28 06:36:25;;;;;;;;;4.00;1.00;;;;;13.65;72.06;99374.09;5077433;28;45430;-75
2021/12/28 06:38:50;;;;;;;;;2.00;0.33;;;;;13.54;71.72;99385.84;5077477;28;45326;-76
2021/12/28 06:41:16;;;;;;;;;3.67;0.00;;;;;13.50;71.55;99386.81;5077861;28;45504;-76
2021/12/28 06:43:41;;;;;;;;;0.33;0.00;;;;;13.49;71.92;99403.66;5059000;28;53558;-76
2021/12/28 06:46:06;;;;;;;;;2.00;1.00;;;;;13.44;71.53;99388.75;5059254;28;46159;-76
2021/12/28 06:48:32;;;;;;;;;1.33;0.67;;;;;13.43;71.53;99394.97;5076922;28;52711;-75
2021/12/28 06:50:57;;;;;;;;;6.33;1.00;;;;;13.41;70.71;99397.63;5059403;28;45580;-77
2021/12/28 06:53:23;;;;;;;;;3.67;0.67;;;;;13.44;70.98;99394.91;5081205;27;60440;-76
2021/12/28 06:55:48;;;;;;;;;2.33;0.00;;;;;13.48;71.09;99393.94;5068204;28;45323;-76
2021/12/28 06:58:21;;;;;;;;;0.00;0.00;;;;;13.52;71.15;99392.06;5058356;28;45332;-76
2021/12/28 07:00:49;;;;;;;;;3.00;1.00;;;;;13.52;71.27;99376.16;5059145;28;45644;-77
2021/12/28 07:03:15;;;;;;;;;1.00;0.00;;;;;13.59;70.36;99394.56;5077131;28;45900;-76
2021/12/28 07:05:40;;;;;;;;;1.67;0.00;;;;;13.61;70.87;99397.16;5076886;28;59808;-76
2021/12/28 07:08:06;;;;;;;;;6.33;0.67;;;;;13.65;70.08;99397.97;5077261;27;45613;-76
2021/12/28 07:10:34;;;;;;;;;8.33;1.67;;;;;13.66;70.30;99389.97;5088538;27;45510;-76
2021/12/28 07:13:02;;;;;;;;;3.33;1.00;;;;;13.67;69.97;99401.44;5071749;28;53325;-76
2021/12/28 07:15:27;;;;;;;;;0.33;0.00;;;;;13.69;70.41;99399.63;5062045;27;45456;-76
2021/12/28 07:17:53;;;;;;;;;3.33;0.00;;;;;13.70;70.65;99402.25;5079568;27;45933;-76
2021/12/28 07:20:18;;;;;;;;;4.00;0.00;;;;;13.66;70.20;99389.09;5083766;27;45273;-76
2021/12/28 07:22:47;;;;;;;;;2.33;0.00;;;;;13.71;69.93;99393.38;5077184;28;45409;-76
2021/12/28 07:25:22;;;;;;;;;2.00;0.00;;;;;13.70;70.16;99414.66;5076493;27;49310;-76
2021/12/28 07:27:49;;;;;;;;;1.33;0.00;;;;;13.72;69.66;99408.38;5077023;28;45237;-77
2021/12/28 07:30:15;;;;;;;;;2.00;1.00;;;;;13.73;69.00;99418.06;5076497;28;52602;-76
2021/12/28 07:32:40;;;;;;;;;4.00;0.00;;;;;13.74;69.62;99417.19;5076558;28;46194;-77
2021/12/28 07:35:07;;;;;;;;;1.33;1.00;;;;;13.74;69.78;99416.28;5076626;28;45495;-76
2021/12/28 07:37:35;;;;;;;;;4.00;1.00;;;;;13.69;70.16;99411.13;5058784;28;45424;-76
2021/12/28 07:40:03;;;;;;;;;3.00;0.00;;;;;13.74;70.03;99414.53;5058735;28;45222;-76
2021/12/28 07:42:31;;;;;;;;;1.00;0.00;;;;;13.73;69.51;99428.69;5076452;28;46569;-76
2021/12/28 07:44:57;;;;;;;;;0.00;0.00;;;;;13.66;69.75;99416.50;5076659;28;45404;-76
2021/12/28 07:47:22;;;;;;;;;2.67;0.00;;;;;13.77;69.83;99440.09;5058524;28;45532;-76
2021/12/28 07:49:48;;;;;;;;;3.67;1.00;;;;;13.76;69.91;99449.84;5076470;27;50899;-77
2021/12/28 07:52:13;;;;;;;;;1.00;1.00;;;;;13.75;69.94;99463.16;5058321;28;47133;-76
2021/12/28 07:54:38;;;;;;;;;2.33;0.00;;;;;13.71;70.31;99470.31;5089145;27;59662;-76
2021/12/28 07:57:04;;;;;;;;;4.00;0.00;;;;;13.76;69.84;99464.91;5076068;28;54981;-76
2021/12/28 07:59:29;;;;;;;;;3.00;1.00;;;;;13.75;69.86;99463.16;5076313;27;45615;-76
2021/12/28 08:01:55;;;;;;;;;3.00;1.00;;;;;13.74;70.07;99456.97;5076084;27;56011;-76
2021/12/28 08:04:24;;;;;;;;;4.33;1.00;;;;;13.76;70.79;99467.53;5075978;27;58786;-76
2021/12/28 08:06:49;;;;;;;;;0.00;0.00;;;;;13.75;70.28;99471.13;5058162;28;45356;-76
2021/12/28 08:09:14;;;;;;;;;4.67;0.00;;;;;13.76;70.60;99475.50;5058683;28;53435;-77
2021/12/28 08:11:43;;;;;;;;;1.33;0.00;;;;;13.73;71.07;99478.22;5097393;27;62253;-76
2021/12/28 08:14:11;;;;;;;;;2.00;0.00;;;;;13.72;70.90;99479.13;5083821;27;45375;-77
2021/12/28 08:16:39;;;;;;;;;4.00;2.00;;;;;13.70;71.26;99512.78;5079741;28;45184;-76
2021/12/28 08:19:08;;;;;;;;;2.00;0.00;;;;;13.67;71.83;99496.94;5067876;27;45536;-76
2021/12/28 08:21:39;;;;;;;;;3.33;0.67;;;;;13.65;71.77;99504.94;5079488;27;46303;-75
2021/12/28 08:24:08;;;;;;;;;3.33;0.00;;;;;13.67;71.49;99511.06;5062498;28;45525;-76
2021/12/28 08:26:36;;;;;;;;;3.00;0.33;;;;;13.68;71.54;99518.09;5079654;27;45317;-76
2021/12/28 08:29:01;;;;;;;;;2.67;0.00;;;;;13.68;71.94;99523.41;5079834;28;45485;-76
2021/12/28 08:31:27;;;;;;;;;0.00;0.00;;;;;13.68;72.07;99522.53;5079281;27;46635;-77
2021/12/28 08:33:52;;;;;;;;;0.33;0.00;;;;;13.67;71.88;99523.47;5079533;27;45268;-75
2021/12/28 08:36:21;;;;;;;;;2.67;0.00;;;;;13.58;71.59;99528.09;5079447;27;45419;-75
2021/12/28 08:38:46;;;;;;;;;0.00;0.00;;;;;13.59;71.42;99545.72;5079637;27;45569;-75
2021/12/28 08:41:12;;;;;;;;;5.33;0.00;;;;;13.57;72.20;99547.53;5079146;28;46577;-76
2021/12/28 08:43:38;;;;;;;;;1.00;0.00;;;;;13.56;72.28;99529.00;5079180;27;45295;-76
2021/12/28 08:46:06;;;;;;;;;0.00;0.00;;;;;13.53;73.00;99542.31;5079614;28;45358;-75
2021/12/28 08:48:32;;;;;;;;;1.00;0.00;;;;;13.54;72.73;99542.31;5079389;27;45563;-75
2021/12/28 08:50:57;;;;;;;;;0.00;0.00;;;;;13.56;72.86;99547.56;5078300;28;64037;-75
2021/12/28 08:53:22;;;;;;;;;0.00;0.00;;;;;13.55;73.18;99549.34;5083236;27;54922;-76
2021/12/28 08:55:48;;;;;;;;;0.33;0.33;;;;;13.54;73.23;99537.00;5088584;27;45848;-76
2021/12/28 08:58:15;;;;;;;;;1.00;0.00;;;;;13.53;72.98;99537.00;5079190;27;45628;-75
2021/12/28 09:00:40;;;;;;;;;1.33;0.00;;;;;13.53;73.04;99547.63;5078973;27;46597;-76
2021/12/28 09:03:06;;;;;;;;;0.00;0.00;;;;;13.54;73.09;99546.75;5060884;28;45481;-75
2021/12/28 09:05:32;;;;;;;;;2.00;0.00;;;;;13.54;73.26;99547.59;5079452;28;45346;-76
2021/12/28 09:07:58;;;;;;;;;0.00;0.00;;;;;13.55;72.79;99541.41;5079216;27;45432;-76
2021/12/28 09:10:25;;;;;;;;;3.00;0.00;;;;;13.56;72.80;99555.53;5066200;27;46143;-77
2021/12/28 09:12:51;;;;;;;;;1.33;0.33;;;;;13.49;72.22;99543.31;5092149;27;45290;-75
2021/12/28 09:15:16;;;;;;;;;1.00;0.00;;;;;13.53;71.84;99561.78;5090488;27;45279;-75
2021/12/28 09:17:42;;;;;;;;;1.00;0.00;;;;;13.56;71.13;99555.53;5061646;28;50643;-76
2021/12/28 09:20:10;;;;;;;;;1.00;0.00;;;;;13.56;71.37;99547.56;5064083;28;46324;-75
2021/12/28 09:22:35;;;;;;;;;0.67;0.67;;;;;13.56;71.53;99561.69;5078626;28;45477;-76
2021/12/28 09:25:01;;;;;;;;;3.00;0.00;;;;;13.52;70.05;99552.06;5078778;28;45344;-76
2021/12/28 09:27:26;;;;;;;;;4.33;1.00;;;;;13.57;70.19;99567.88;5078532;28;45288;-75
2021/12/28 09:29:52;;;;;;;;;3.00;0.00;;;;;13.56;70.46;99553.75;5078253;28;61023;-76
2021/12/28 09:32:18;;;;;;;;;1.00;1.00;;;;;13.58;70.05;99556.34;5078040;28;56035;-76
2021/12/28 09:34:43;;;;;;;;;1.00;1.00;;;;;13.57;69.20;99544.88;5078735;28;45384;-75
2021/12/28 09:37:09;;;;;;;;;5.33;1.00;;;;;13.59;68.68;99569.59;5078280;28;45317;-77
2021/12/28 09:39:34;;;;;;;;;2.00;0.00;;;;;13.63;69.31;99565.09;5078312;28;45867;-76
2021/12/28 09:42:01;;;;;;;;;3.67;1.00;;;;;13.58;67.89;99564.31;5078055;28;55806;-76
2021/12/28 09:44:27;;;;;;;;;3.00;0.33;;;;;13.62;68.98;99574.81;5060528;28;45315;-75
2021/12/28 09:46:53;;;;;;;;;1.33;0.67;;;;;13.63;68.32;99576.59;5078838;28;45444;-76
2021/12/28 09:49:18;;;;;;;;;3.00;1.00;;;;;13.66;68.05;99577.41;5078176;28;46437;-75
2021/12/28 09:51:45;;;;;;;;;4.33;1.00;;;;;13.63;67.66;99581.91;5078075;28;45221;-76
2021/12/28 09:54:10;;;;;;;;;4.67;1.00;;;;;13.66;67.75;99583.59;5089490;27;45513;-76
2021/12/28 09:56:36;;;;;;;;;4.00;2.00;;;;;13.67;67.13;99593.28;5080003;27;53673;-75
2021/12/28 09:59:03;;;;;;;;;5.67;1.67;;;;;13.67;66.71;99598.59;5059977;28;47602;-75
2021/12/28 10:01:29;;;;;;;;;5.00;1.00;;;;;13.62;66.67;99582.78;5077908;28;45485;-75
2021/12/28 10:03:55;;;;;;;;;4.00;1.67;;;;;13.68;64.95;99594.16;5077849;28;53962;-75
2021/12/28 10:06:26;;;;;;;;;5.00;1.00;;;;;13.67;65.29;99603.91;5078153;28;45141;-75
2021/12/28 10:09:06;;;;;;;;;6.00;1.00;;;;;13.66;64.80;99591.56;5059573;28;46619;-75
2021/12/28 10:11:33;;;;;;;;;3.00;2.00;;;;;13.67;64.51;99597.72;5086678;27;45403;-75
2021/12/28 10:14:11;;;;;;;;;6.00;3.00;;;;;13.66;64.59;99594.22;5097899;27;45339;-76
2021/12/28 10:16:55;;;;;;;;;7.67;1.00;;;;;13.65;64.31;99592.47;5088940;27;45340;-75
2021/12/28 10:19:38;;;;;;;;;6.00;2.00;;;;;13.65;63.67;99621.66;5078750;27;47355;-75
2021/12/28 10:22:27;;;;;;;;;6.00;1.67;;;;;13.65;63.42;99624.28;5077526;28;45259;-75
2021/12/28 10:25:09;;;;;;;;;7.00;3.00;;;;;13.63;63.74;99632.28;5077715;28;45521;-75
2021/12/28 10:27:35;;;;;;;;;9.33;3.00;;;;;13.65;63.53;99624.28;5060887;28;45554;-76
2021/12/28 10:30:04;;;;;;;;;5.00;3.00;;;;;13.69;62.94;99633.03;5077594;28;46244;-76
2021/12/28 10:32:30;;;;;;;;;5.00;3.00;;;;;13.69;63.82;99627.75;5076744;27;45540;-76
2021/12/28 10:34:58;;;;;;;;;7.67;3.00;;;;;13.70;63.01;99629.50;5077880;28;45296;-76
2021/12/28 10:37:35;;;;;;;;;6.33;2.00;;;;;13.67;62.60;99625.13;5077537;28;45311;-75
2021/12/28 10:40:01;;;;;;;;;5.67;2.00;;;;;13.72;62.67;99636.50;5077466;28;45876;-75
2021/12/28 10:42:38;;;;;;;;;8.00;1.00;;;;;13.70;63.03;99638.34;5077647;28;45489;-75
2021/12/28 10:45:05;;;;;;;;;7.00;4.33;;;;;13.77;62.96;99642.59;5077536;28;45470;-75
2021/12/28 10:47:30;;;;;;;;;12.00;4.00;;;;;13.79;62.50;99646.09;5077392;28;45232;-75
2021/12/28 10:49:57;;;;;;;;;8.00;5.00;;;;;13.82;62.77;99638.06;5077069;28;52248;-76
2021/12/28 10:52:36;;;;;;;;;13.00;3.00;;;;;13.87;62.29;99645.94;5077175;28;45340;-76
2021/12/28 10:55:22;;;;;;;;;12.67;3.00;;;;;13.87;62.05;99637.97;5090698;27;45501;-75
2021/12/28 10:57:48;;;;;;;;;12.67;4.67;;;;;13.90;62.48;99659.13;5077452;28;45469;-75
2021/12/28 11:00:34;;;;;;;;;7.67;3.00;;;;;13.89;62.00;99650.28;5077188;28;47502;-75
2021/12/28 11:03:40;;;;;;;;;6.00;3.00;;;;;13.88;61.32;99658.28;5058943;28;45415;-75
2021/12/28 11:06:14;;;;;;;;;12.33;3.67;;;;;13.90;62.28;99656.47;4978073;28;45488;-77
2021/12/28 11:08:39;;;;;;;;;9.33;5.00;;;;;13.88;62.38;99647.69;4978923;28;45344;-76
2021/12/28 11:11:11;;;;;;;;;10.00;3.33;;;;;13.84;62.18;99643.34;5043205;27;47273;-76
2021/12/28 11:13:36;;;;;;;;;11.00;3.00;;;;;13.82;61.90;99654.00;5094807;27;45338;-76
2021/12/28 11:16:11;;;;;;;;;14.00;2.67;;;;;13.82;61.27;99663.72;5086077;27;45371;-75
2021/12/28 11:18:50;;;;;;;;;4.33;1.67;;;;;13.82;61.38;99671.69;5059142;28;45516;-75
2021/12/28 11:21:23;;;;;;;;;3.33;3.00;;;;;13.82;61.05;99672.56;5071070;28;46369;-75
2021/12/28 11:23:54;;;;;;;;;5.33;4.00;;;;;13.85;60.56;99679.59;5092962;27;45382;-75
2021/12/28 11:26:45;;;;;;;;;7.33;2.00;;;;;13.83;61.38;99678.75;5097460;27;45352;-75
2021/12/28 11:29:13;;;;;;;;;9.67;2.67;;;;;13.79;60.94;99691.19;5079569;27;45441;-75
2021/12/28 11:31:47;;;;;;;;;8.00;3.00;;;;;13.77;61.59;99694.78;5079143;27;45868;-76
2021/12/28 11:34:13;;;;;;;;;14.33;3.00;;;;;13.81;61.80;99712.41;5097174;27;45354;-76